createdAt,value
2023-01-05T00:09:55.249Z,5.20
2023-01-05T00:20:18.301Z,4.30
2023-01-05T00:30:24.370Z,4.30
2023-01-05T00:40:28.045Z,4.00
2023-01-05T00:50:31.847Z,4.40
2023-01-05T01:00:45.583Z,4.10
2023-01-05T01:10:51.413Z,3.70
2023-01-05T01:20:57.728Z,2.90
2023-01-05T01:31:02.215Z,3.00
2023-01-05T01:41:05.979Z,2.50
2023-01-05T01:51:18.590Z,3.10
2023-01-05T02:01:24.363Z,2.80
2023-01-05T02:11:44.470Z,2.80
2023-01-05T02:22:12.127Z,2.60
2023-01-05T02:32:35.114Z,4.10
2023-01-05T02:42:41.501Z,2.60
2023-01-05T02:52:48.251Z,2.30
2023-01-05T03:03:02.281Z,2.10
2023-01-05T03:13:29.523Z,2.60
2023-01-05T03:23:51.922Z,2.10
2023-01-05T03:34:29.165Z,1.60
2023-01-05T03:44:39.416Z,1.90
2023-01-05T03:54:46.175Z,1.70
2023-01-05T04:04:51.104Z,1.70
2023-01-05T04:14:55.092Z,1.90
2023-01-05T04:25:00.058Z,1.40
2023-01-05T04:35:11.035Z,1.30
2023-01-05T04:45:16.215Z,1.90
2023-01-05T04:55:20.634Z,1.10
2023-01-05T05:05:24.756Z,1.00
2023-01-05T05:15:30.429Z,1.40
2023-01-05T05:25:35.804Z,2.10
2023-01-05T05:35:39.799Z,1.70
2023-01-05T05:45:50.108Z,1.90
2023-01-05T05:55:54.410Z,1.60
2023-01-05T06:05:57.921Z,3.00
2023-01-05T06:16:03.083Z,2.00
2023-01-05T06:26:07.601Z,2.30
2023-01-05T06:36:11.148Z,1.80
2023-01-05T06:46:14.670Z,2.00
2023-01-05T06:56:19.323Z,2.50
2023-01-05T07:06:23.023Z,1.90
2023-01-05T07:16:26.494Z,1.40
2023-01-05T07:26:30.077Z,1.70
2023-01-05T07:36:34.221Z,1.60
2023-01-05T07:46:37.794Z,1.30
2023-01-05T07:56:41.348Z,1.60
2023-01-05T08:06:44.858Z,1.80
2023-01-05T08:16:49.983Z,1.80
2023-01-05T08:26:53.569Z,1.70
2023-01-05T08:36:57.164Z,1.90
2023-01-05T08:47:00.658Z,2.70
2023-01-05T08:57:04.261Z,2.70
2023-01-05T09:07:10.886Z,3.00
2023-01-05T09:17:14.393Z,1.50
2023-01-05T09:27:18.055Z,1.30
2023-01-05T09:37:21.566Z,1.80
2023-01-05T09:47:41.360Z,2.00
2023-01-05T09:58:05.549Z,2.40
2023-01-05T10:08:19.935Z,1.40
2023-01-05T10:18:29.780Z,1.10
2023-01-05T10:28:53.200Z,1.20
2023-01-05T10:39:18.159Z,3.00
2023-01-05T10:49:31.578Z,1.90
2023-01-05T10:59:35.278Z,1.80
2023-01-05T11:09:45.414Z,2.20
2023-01-05T11:19:55.089Z,3.10
2023-01-05T11:30:20.792Z,1.70
2023-01-05T11:40:29.809Z,1.90
2023-01-05T11:50:49.289Z,2.00
2023-01-05T12:01:01.890Z,1.70
2023-01-05T12:11:20.043Z,2.00
2023-01-05T12:21:26.204Z,2.40
2023-01-05T12:42:31.811Z,2.10
2023-01-05T12:52:41.722Z,2.70
2023-01-05T13:02:54.005Z,6.70
2023-01-05T13:13:01.595Z,3.70
2023-01-05T13:23:14.919Z,3.10
2023-01-05T13:33:58.191Z,2.90
2023-01-05T13:44:17.098Z,2.40
2023-01-05T13:54:54.703Z,1.50
2023-01-05T14:05:09.776Z,1.20
2023-01-05T14:15:29.108Z,1.80
2023-01-05T14:25:38.959Z,1.70
2023-01-05T14:35:44.616Z,1.60
2023-01-05T14:46:09.859Z,2.30
2023-01-05T14:56:15.916Z,1.90
2023-01-05T15:06:39.436Z,2.00
2023-01-05T15:17:17.072Z,2.10
2023-01-05T15:27:39.918Z,2.40
2023-01-05T15:37:44.480Z,2.80
2023-01-05T15:47:49.611Z,2.30
2023-01-05T15:57:57.612Z,1.80
2023-01-05T16:08:11.760Z,2.00
2023-01-05T16:18:23.715Z,1.60
2023-01-05T16:28:27.785Z,2.30
2023-01-05T16:38:31.610Z,1.80
2023-01-05T16:48:39.349Z,1.40
2023-01-05T16:58:44.828Z,3.10
2023-01-05T17:08:49.657Z,1.30
2023-01-05T17:18:54.546Z,1.80
2023-01-05T17:39:20.636Z,3.70
2023-01-05T17:59:34.907Z,3.10
2023-01-05T18:09:39.049Z,3.70
2023-01-05T18:19:43.838Z,4.60
2023-01-05T18:29:47.471Z,3.90
2023-01-05T18:39:51.370Z,3.90
2023-01-05T18:50:11.427Z,5.00
2023-01-05T19:00:20.648Z,3.80
2023-01-05T19:10:24.792Z,4.00
2023-01-05T19:20:30.428Z,4.00
2023-01-05T19:30:34.140Z,2.90
2023-01-05T19:40:38.110Z,4.10
2023-01-05T19:50:42.200Z,4.00
2023-01-05T20:00:46.417Z,4.40
2023-01-05T20:10:50.103Z,4.50
2023-01-05T20:20:53.922Z,5.50
2023-01-05T20:30:58.931Z,6.80
2023-01-05T20:41:13.157Z,5.70
2023-01-05T20:51:18.002Z,5.60
2023-01-05T21:01:22.926Z,6.00
2023-01-05T21:11:26.743Z,5.90
2023-01-05T21:21:31.156Z,6.70
2023-01-05T21:31:37.368Z,6.70
2023-01-05T21:42:00.798Z,5.50
2023-01-05T21:52:24.715Z,4.90
2023-01-05T22:02:28.361Z,5.90
2023-01-05T22:12:31.913Z,5.60
2023-01-05T22:22:38.910Z,6.00
2023-01-05T22:32:43.104Z,6.90
2023-01-05T22:42:47.024Z,5.40
2023-01-05T22:52:50.618Z,3.90
2023-01-05T23:02:55.875Z,4.80
2023-01-05T23:12:59.480Z,4.30
2023-01-05T23:23:03.240Z,4.40
2023-01-05T23:33:06.822Z,4.90
2023-01-05T23:43:16.490Z,4.50
2023-01-05T23:53:20.083Z,6.20
